MSC Rania — 3EEB3 — position and weather

sailwx.info

Track history (hours):
 
Tides and Currents Weather Stations Pressure Air Temp Water Temp Dewpoint Dewpoint Depression Visibility Wind Speed Wind Dir Waves Ship Positions

MSC Rania

Last reported at 2017-Mar-27 13:03 UTC. Time now 2017-Mar-27 22:17 UTC.
Position N 01°55' E 102°19'.

Length 332 m; draft 14.8 m.

Type: Ship (hazmat cat A). MMSI: 371752000.

Date/timePositionNaut miles runAvg speedWind from/ knotsBaromVisibWave heightAir tempDewpointWater temp
2017-Mar-27 13:03N 01°55' E 102°19'815.8
2017-Mar-27 12:33N 01°51' E 102°26'1615.7
2017-Mar-27 11:31N 01°44' E 102°40'5016.7
2017-Mar-27 08:33N 01°16' E 103°21'1716.7
2017-Mar-27 07:33N 01°12' E 103°37'9 8.6
2017-Mar-27 06:34N 01°16' E 103°45'1 1.2
2017-Mar-27 05:32N 01°16' E 103°46'0 0.0
2017-Mar-27 04:32N 01°16' E 103°46'0 0.0
2017-Mar-27 03:28N 01°16' E 103°46'0 0.0
2017-Mar-27 02:31N 01°16' E 103°46'0 0.0
2017-Mar-27 01:31N 01°16' E 103°46'0 0.0
2017-Mar-27 00:28N 01°16' E 103°46'0 0.0
2017-Mar-26 23:28N 01°16' E 103°46'0 0.0
2017-Mar-26 22:28N 01°16' E 103°46'0 0.0
2017-Mar-26 21:28N 01°16' E 103°46'0 0.0
2017-Mar-26 20:31N 01°16' E 103°46'0 0.0
2017-Mar-26 19:31N 01°16' E 103°46'0 0.0
2017-Mar-26 18:31N 01°16' E 103°46'0 0.0
2017-Mar-26 17:31N 01°16' E 103°46'0 0.0
2017-Mar-26 16:31N 01°16' E 103°46'0 0.0
2017-Mar-26 15:31N 01°16' E 103°46'0 0.0
2017-Mar-26 14:31N 01°16' E 103°46'0 0.0
2017-Mar-26 13:31N 01°16' E 103°46'0 0.0
2017-Mar-26 12:31N 01°16' E 103°46'0 0.0
2017-Mar-26 11:31N 01°16' E 103°46'0 0.0
2017-Mar-26 10:31N 01°16' E 103°46'0 0.0
2017-Mar-26 09:31N 01°16' E 103°46'0 0.0
2017-Mar-26 08:31N 01°16' E 103°46'0 0.0
2017-Mar-26 07:31N 01°16' E 103°46'0 0.0
2017-Mar-26 06:31N 01°16' E 103°46'0 0.0
2017-Mar-26 05:31N 01°16' E 103°46'0 0.0
2017-Mar-26 04:31N 01°16' E 103°46'0 0.0
2017-Mar-26 03:31N 01°16' E 103°46'0 0.0
2017-Mar-26 02:28N 01°16' E 103°46'0 0.0
2017-Mar-26 01:31N 01°16' E 103°46'0 0.0
2017-Mar-26 00:31N 01°16' E 103°46'0 0.0
2017-Mar-25 23:28N 01°16' E 103°46'0 0.1
2017-Mar-25 22:31N 01°16' E 103°46'2 2.0
2017-Mar-25 21:27N 01°14' E 103°47'0 0.1
2017-Mar-25 20:33N 01°14' E 103°47'0 0.0
2017-Mar-25 19:33N 01°14' E 103°47'0 0.0
2017-Mar-25 18:33N 01°14' E 103°47'0 0.0
2017-Mar-25 17:33N 01°14' E 103°47'0 0.0
2017-Mar-25 16:33N 01°14' E 103°47'0 0.0
2017-Mar-25 15:33N 01°14' E 103°47'0 0.0
2017-Mar-25 14:33N 01°14' E 103°47'0 0.1
2017-Mar-25 13:33N 01°14' E 103°47'0 0.2
2017-Mar-25 12:33N 01°14' E 103°47'1110.8
2017-Mar-25 11:33N 01°13' E 103°36'6 6.3
2017-Mar-25 10:33N 01°10' E 103°31'3 3.2
2017-Mar-25 09:33N 01°12' E 103°28'0 0.2
2017-Mar-25 08:32N 01°12' E 103°28'4 3.8
2017-Mar-25 07:33N 01°14' E 103°31'7 7.2
2017-Mar-25 06:33N 01°21' E 103°33'0 0.1
2017-Mar-25 05:31N 01°21' E 103°33'0 0.0
2017-Mar-25 04:28N 01°21' E 103°33'0 0.0
2017-Mar-25 03:31N 01°21' E 103°33'0 0.0
2017-Mar-25 02:24N 01°21' E 103°33'0 0.0
2017-Mar-25 01:33N 01°21' E 103°33'0 0.0
2017-Mar-25 00:33N 01°21' E 103°33'0 0.0
2017-Mar-24 23:27N 01°21' E 103°33'0 0.0
2017-Mar-24 22:33N 01°21' E 103°33'0 0.0
2017-Mar-24 21:33N 01°21' E 103°33'3 2.9
2017-Mar-24 20:33N 01°18' E 103°33'6 6.0
2017-Mar-24 19:33N 01°12' E 103°35'1010.4
2017-Mar-24 18:33N 01°08' E 103°45'1514.9
2017-Mar-24 17:33N 01°15' E 103°58'  
2017-Mar-17 15:33N 30°19' E 123°06'1111.2
2017-Mar-17 14:34N 30°30' E 123°05'  
Track history (hours):
 
Tides and Currents Weather Stations Pressure Air Temp Water Temp Dewpoint Dewpoint Depression Visibility Wind Speed Wind Dir Waves Ship Positions

MSC Rania

Last reported at 2017-Mar-27 13:03 UTC. Time now 2017-Mar-27 22:17 UTC.
Position N 01°55' E 102°19'.

Length 332 m; draft 14.8 m.

Type: Ship (hazmat cat A). MMSI: 371752000.

Date/timePositionNaut miles runAvg speedWind from/ knotsBaromVisibWave heightAir tempDewpointWater temp
2017-Mar-27 13:03N 01°55' E 102°19'815.8
2017-Mar-27 12:33N 01°51' E 102°26'1615.7
2017-Mar-27 11:31N 01°44' E 102°40'5016.7
2017-Mar-27 08:33N 01°16' E 103°21'1716.7
2017-Mar-27 07:33N 01°12' E 103°37'9 8.6
2017-Mar-27 06:34N 01°16' E 103°45'1 1.2
2017-Mar-27 05:32N 01°16' E 103°46'0 0.0
2017-Mar-27 04:32N 01°16' E 103°46'0 0.0
2017-Mar-27 03:28N 01°16' E 103°46'0 0.0
2017-Mar-27 02:31N 01°16' E 103°46'0 0.0
2017-Mar-27 01:31N 01°16' E 103°46'0 0.0
2017-Mar-27 00:28N 01°16' E 103°46'0 0.0
2017-Mar-26 23:28N 01°16' E 103°46'0 0.0
2017-Mar-26 22:28N 01°16' E 103°46'0 0.0
2017-Mar-26 21:28N 01°16' E 103°46'0 0.0
2017-Mar-26 20:31N 01°16' E 103°46'0 0.0
2017-Mar-26 19:31N 01°16' E 103°46'0 0.0
2017-Mar-26 18:31N 01°16' E 103°46'0 0.0
2017-Mar-26 17:31N 01°16' E 103°46'0 0.0
2017-Mar-26 16:31N 01°16' E 103°46'0 0.0
2017-Mar-26 15:31N 01°16' E 103°46'0 0.0
2017-Mar-26 14:31N 01°16' E 103°46'0 0.0
2017-Mar-26 13:31N 01°16' E 103°46'0 0.0
2017-Mar-26 12:31N 01°16' E 103°46'0 0.0
2017-Mar-26 11:31N 01°16' E 103°46'0 0.0
2017-Mar-26 10:31N 01°16' E 103°46'0 0.0
2017-Mar-26 09:31N 01°16' E 103°46'0 0.0
2017-Mar-26 08:31N 01°16' E 103°46'0 0.0
2017-Mar-26 07:31N 01°16' E 103°46'0 0.0
2017-Mar-26 06:31N 01°16' E 103°46'0 0.0
2017-Mar-26 05:31N 01°16' E 103°46'0 0.0
2017-Mar-26 04:31N 01°16' E 103°46'0 0.0
2017-Mar-26 03:31N 01°16' E 103°46'0 0.0
2017-Mar-26 02:28N 01°16' E 103°46'0 0.0
2017-Mar-26 01:31N 01°16' E 103°46'0 0.0
2017-Mar-26 00:31N 01°16' E 103°46'0 0.0
2017-Mar-25 23:28N 01°16' E 103°46'0 0.1
2017-Mar-25 22:31N 01°16' E 103°46'2 2.0
2017-Mar-25 21:27N 01°14' E 103°47'0 0.1
2017-Mar-25 20:33N 01°14' E 103°47'0 0.0
2017-Mar-25 19:33N 01°14' E 103°47'0 0.0
2017-Mar-25 18:33N 01°14' E 103°47'0 0.0
2017-Mar-25 17:33N 01°14' E 103°47'0 0.0
2017-Mar-25 16:33N 01°14' E 103°47'0 0.0
2017-Mar-25 15:33N 01°14' E 103°47'0 0.0
2017-Mar-25 14:33N 01°14' E 103°47'0 0.1
2017-Mar-25 13:33N 01°14' E 103°47'0 0.2
2017-Mar-25 12:33N 01°14' E 103°47'1110.8
2017-Mar-25 11:33N 01°13' E 103°36'6 6.3
2017-Mar-25 10:33N 01°10' E 103°31'3 3.2
2017-Mar-25 09:33N 01°12' E 103°28'0 0.2
2017-Mar-25 08:32N 01°12' E 103°28'4 3.8
2017-Mar-25 07:33N 01°14' E 103°31'7 7.2
2017-Mar-25 06:33N 01°21' E 103°33'0 0.1
2017-Mar-25 05:31N 01°21' E 103°33'0 0.0
2017-Mar-25 04:28N 01°21' E 103°33'0 0.0
2017-Mar-25 03:31N 01°21' E 103°33'0 0.0
2017-Mar-25 02:24N 01°21' E 103°33'0 0.0
2017-Mar-25 01:33N 01°21' E 103°33'0 0.0
2017-Mar-25 00:33N 01°21' E 103°33'0 0.0
2017-Mar-24 23:27N 01°21' E 103°33'0 0.0
2017-Mar-24 22:33N 01°21' E 103°33'0 0.0
2017-Mar-24 21:33N 01°21' E 103°33'3 2.9
2017-Mar-24 20:33N 01°18' E 103°33'6 6.0
2017-Mar-24 19:33N 01°12' E 103°35'1010.4
2017-Mar-24 18:33N 01°08' E 103°45'1514.9
2017-Mar-24 17:33N 01°15' E 103°58'  
2017-Mar-17 15:33N 30°19' E 123°06'1111.2
2017-Mar-17 14:34N 30°30' E 123°05'  

Dump ship's entire track history